sensor_id;sensor_type;location;lat;lon;timestamp;temperature;humidity
27540;DHT22;15906;52.046;4.724;2022-09-16T00:00:04;13.50;99.90
27540;DHT22;15906;52.046;4.724;2022-09-16T00:02:30;13.40;99.90
27540;DHT22;15906;52.046;4.724;2022-09-16T00:04:56;13.40;99.90
27540;DHT22;15906;52.046;4.724;2022-09-16T00:07:21;13.40;99.90
27540;DHT22;15906;52.046;4.724;2022-09-16T00:09:47;13.40;99.90
27540;DHT22;15906;52.046;4.724;2022-09-16T00:12:12;13.30;99.90
27540;DHT22;15906;52.046;4.724;2022-09-16T00:14:38;13.30;99.90
27540;DHT22;15906;52.046;4.724;2022-09-16T00:17:03;13.40;99.90
27540;DHT22;15906;52.046;4.724;2022-09-16T00:19:29;13.40;99.90
27540;DHT22;15906;52.046;4.724;2022-09-16T00:21:54;13.40;99.90
27540;DHT22;15906;52.046;4.724;2022-09-16T00:24:20;13.40;99.90
27540;DHT22;15906;52.046;4.724;2022-09-16T00:26:45;13.40;99.90
27540;DHT22;15906;52.046;4.724;2022-09-16T00:29:11;13.50;99.90
27540;DHT22;15906;52.046;4.724;2022-09-16T00:31:36;13.40;99.90
27540;DHT22;15906;52.046;4.724;2022-09-16T00:34:02;13.50;99.90
27540;DHT22;15906;52.046;4.724;2022-09-16T00:36:28;13.50;99.90
27540;DHT22;15906;52.046;4.724;2022-09-16T00:38:54;13.50;99.90
27540;DHT22;15906;52.046;4.724;2022-09-16T00:41:23;13.50;99.90
27540;DHT22;15906;52.046;4.724;2022-09-16T00:43:55;13.40;99.90
27540;DHT22;15906;52.046;4.724;2022-09-16T00:48:54;13.40;99.90
27540;DHT22;15906;52.046;4.724;2022-09-16T00:51:21;13.40;99.90
27540;DHT22;15906;52.046;4.724;2022-09-16T00:53:51;13.30;99.90
27540;DHT22;15906;52.046;4.724;2022-09-16T00:56:18;13.40;99.90
27540;DHT22;15906;52.046;4.724;2022-09-16T00:59:08;13.40;99.90
27540;DHT22;15906;52.046;4.724;2022-09-16T01:01:36;13.40;99.90
27540;DHT22;15906;52.046;4.724;2022-09-16T01:04:07;13.40;99.90
27540;DHT22;15906;52.046;4.724;2022-09-16T01:06:37;13.40;99.90
27540;DHT22;15906;52.046;4.724;2022-09-16T01:09:04;13.50;99.90
27540;DHT22;15906;52.046;4.724;2022-09-16T01:11:30;13.50;99.90
27540;DHT22;15906;52.046;4.724;2022-09-16T01:13:56;13.60;99.90
27540;DHT22;15906;52.046;4.724;2022-09-16T01:16:52;13.60;99.90
27540;DHT22;15906;52.046;4.724;2022-09-16T01:20:02;13.70;99.90
27540;DHT22;15906;52.046;4.724;2022-09-16T01:28:30;13.50;99.90
27540;DHT22;15906;52.046;4.724;2022-09-16T01:31:11;13.50;99.90
27540;DHT22;15906;52.046;4.724;2022-09-16T01:33:53;13.60;99.90
27540;DHT22;15906;52.046;4.724;2022-09-16T01:39:43;13.60;99.90
27540;DHT22;15906;52.046;4.724;2022-09-16T01:45:12;13.40;99.90
27540;DHT22;15906;52.046;4.724;2022-09-16T01:48:08;13.40;99.90
27540;DHT22;15906;52.046;4.724;2022-09-16T01:50:41;13.30;99.90
27540;DHT22;15906;52.046;4.724;2022-09-16T01:53:18;13.30;99.90
27540;DHT22;15906;52.046;4.724;2022-09-16T01:55:47;13.20;99.90
27540;DHT22;15906;52.046;4.724;2022-09-16T01:58:33;13.20;99.90
27540;DHT22;15906;52.046;4.724;2022-09-16T02:01:08;13.30;99.90
27540;DHT22;15906;52.046;4.724;2022-09-16T02:03:37;13.30;99.90
27540;DHT22;15906;52.046;4.724;2022-09-16T02:06:14;13.40;99.90
27540;DHT22;15906;52.046;4.724;2022-09-16T02:08:52;13.30;99.90
27540;DHT22;15906;52.046;4.724;2022-09-16T02:11:21;13.30;99.90
27540;DHT22;15906;52.046;4.724;2022-09-16T02:14:20;13.10;99.90
27540;DHT22;15906;52.046;4.724;2022-09-16T02:17:03;13.10;99.90
27540;DHT22;15906;52.046;4.724;2022-09-16T02:19:43;13.10;99.90
27540;DHT22;15906;52.046;4.724;2022-09-16T02:22:14;13.00;99.90
27540;DHT22;15906;52.046;4.724;2022-09-16T02:24:42;13.10;99.90
27540;DHT22;15906;52.046;4.724;2022-09-16T02:27:13;13.10;99.90
27540;DHT22;15906;52.046;4.724;2022-09-16T02:29:43;13.10;99.90
27540;DHT22;15906;52.046;4.724;2022-09-16T02:32:10;13.10;99.90
27540;DHT22;15906;52.046;4.724;2022-09-16T02:34:41;13.10;99.90
27540;DHT22;15906;52.046;4.724;2022-09-16T02:37:13;13.20;99.90
27540;DHT22;15906;52.046;4.724;2022-09-16T02:39:40;13.30;99.90
27540;DHT22;15906;52.046;4.724;2022-09-16T02:42:08;13.20;99.90
27540;DHT22;15906;52.046;4.724;2022-09-16T02:44:34;13.20;99.90
27540;DHT22;15906;52.046;4.724;2022-09-16T02:47:15;13.30;99.90
27540;DHT22;15906;52.046;4.724;2022-09-16T02:55:29;13.40;99.90
27540;DHT22;15906;52.046;4.724;2022-09-16T02:57:57;13.40;99.90
27540;DHT22;15906;52.046;4.724;2022-09-16T03:00:23;13.40;99.90
27540;DHT22;15906;52.046;4.724;2022-09-16T03:02:50;13.40;99.90
27540;DHT22;15906;52.046;4.724;2022-09-16T03:05:17;13.40;99.90
27540;DHT22;15906;52.046;4.724;2022-09-16T03:07:43;13.20;99.90
27540;DHT22;15906;52.046;4.724;2022-09-16T03:10:10;13.00;99.90
27540;DHT22;15906;52.046;4.724;2022-09-16T03:15:32;12.50;99.90
27540;DHT22;15906;52.046;4.724;2022-09-16T03:18:27;12.40;99.90
27540;DHT22;15906;52.046;4.724;2022-09-16T03:21:03;12.40;99.90
27540;DHT22;15906;52.046;4.724;2022-09-16T03:26:33;12.50;99.90
27540;DHT22;15906;52.046;4.724;2022-09-16T03:29:17;12.50;99.90
27540;DHT22;15906;52.046;4.724;2022-09-16T03:34:24;12.50;99.90
27540;DHT22;15906;52.046;4.724;2022-09-16T03:36:57;12.60;99.90
27540;DHT22;15906;52.046;4.724;2022-09-16T03:39:23;12.60;99.90
27540;DHT22;15906;52.046;4.724;2022-09-16T03:41:50;12.60;99.90
27540;DHT22;15906;52.046;4.724;2022-09-16T03:44:15;12.50;99.90
27540;DHT22;15906;52.046;4.724;2022-09-16T03:46:41;12.50;99.90
27540;DHT22;15906;52.046;4.724;2022-09-16T03:49:06;12.50;99.90
27540;DHT22;15906;52.046;4.724;2022-09-16T03:51:32;12.50;99.90
27540;DHT22;15906;52.046;4.724;2022-09-16T03:53:57;12.40;99.90
27540;DHT22;15906;52.046;4.724;2022-09-16T03:56:23;12.00;99.90
27540;DHT22;15906;52.046;4.724;2022-09-16T03:58:49;11.90;99.90
27540;DHT22;15906;52.046;4.724;2022-09-16T04:01:15;12.00;99.90
27540;DHT22;15906;52.046;4.724;2022-09-16T04:03:41;12.00;99.90
27540;DHT22;15906;52.046;4.724;2022-09-16T04:06:07;12.20;99.90
27540;DHT22;15906;52.046;4.724;2022-09-16T04:08:33;12.20;99.90
27540;DHT22;15906;52.046;4.724;2022-09-16T04:11:01;12.30;99.90
27540;DHT22;15906;52.046;4.724;2022-09-16T04:13:31;12.30;99.90
27540;DHT22;15906;52.046;4.724;2022-09-16T04:15:58;12.40;99.90
27540;DHT22;15906;52.046;4.724;2022-09-16T04:18:23;12.40;99.90
27540;DHT22;15906;52.046;4.724;2022-09-16T04:20:49;12.40;99.90
27540;DHT22;15906;52.046;4.724;2022-09-16T04:23:14;12.50;99.90
27540;DHT22;15906;52.046;4.724;2022-09-16T04:25:40;12.50;99.90
27540;DHT22;15906;52.046;4.724;2022-09-16T04:28:06;12.50;99.90
27540;DHT22;15906;52.046;4.724;2022-09-16T04:30:32;12.60;99.90
27540;DHT22;15906;52.046;4.724;2022-09-16T04:32:58;12.50;99.90
27540;DHT22;15906;52.046;4.724;2022-09-16T04:35:23;12.50;99.90
27540;DHT22;15906;52.046;4.724;2022-09-16T04:37:50;12.50;99.90
27540;DHT22;15906;52.046;4.724;2022-09-16T04:40:15;12.50;99.90
27540;DHT22;15906;52.046;4.724;2022-09-16T04:42:46;12.50;99.90
27540;DHT22;15906;52.046;4.724;2022-09-16T04:45:12;12.50;99.90
27540;DHT22;15906;52.046;4.724;2022-09-16T04:47:38;12.40;99.90
27540;DHT22;15906;52.046;4.724;2022-09-16T04:50:03;12.40;99.90
27540;DHT22;15906;52.046;4.724;2022-09-16T04:52:30;12.50;99.90
27540;DHT22;15906;52.046;4.724;2022-09-16T04:54:55;12.50;99.90
27540;DHT22;15906;52.046;4.724;2022-09-16T04:57:21;12.60;99.90
27540;DHT22;15906;52.046;4.724;2022-09-16T04:59:46;12.50;99.90
27540;DHT22;15906;52.046;4.724;2022-09-16T05:02:12;12.50;99.90
27540;DHT22;15906;52.046;4.724;2022-09-16T05:04:37;12.50;99.90
27540;DHT22;15906;52.046;4.724;2022-09-16T05:07:03;12.50;99.90
27540;DHT22;15906;52.046;4.724;2022-09-16T05:09:28;12.50;99.90
27540;DHT22;15906;52.046;4.724;2022-09-16T05:11:54;12.50;99.90
27540;DHT22;15906;52.046;4.724;2022-09-16T05:14:19;12.50;99.90
27540;DHT22;15906;52.046;4.724;2022-09-16T05:16:45;12.50;99.90
27540;DHT22;15906;52.046;4.724;2022-09-16T05:19:12;12.40;99.90
27540;DHT22;15906;52.046;4.724;2022-09-16T05:21:38;12.40;99.90
27540;DHT22;15906;52.046;4.724;2022-09-16T05:24:07;12.30;99.90
27540;DHT22;15906;52.046;4.724;2022-09-16T05:26:34;12.30;99.90
27540;DHT22;15906;52.046;4.724;2022-09-16T05:29:07;12.20;99.90
27540;DHT22;15906;52.046;4.724;2022-09-16T05:31:36;12.30;99.90
27540;DHT22;15906;52.046;4.724;2022-09-16T05:34:16;12.30;99.90
27540;DHT22;15906;52.046;4.724;2022-09-16T05:36:43;12.30;99.90
27540;DHT22;15906;52.046;4.724;2022-09-16T05:39:12;12.20;99.90
27540;DHT22;15906;52.046;4.724;2022-09-16T05:41:38;12.20;99.90
27540;DHT22;15906;52.046;4.724;2022-09-16T05:44:04;12.20;99.90
27540;DHT22;15906;52.046;4.724;2022-09-16T05:46:31;12.20;99.90
27540;DHT22;15906;52.046;4.724;2022-09-16T05:48:56;12.10;99.90
27540;DHT22;15906;52.046;4.724;2022-09-16T05:51:23;12.10;99.90
27540;DHT22;15906;52.046;4.724;2022-09-16T05:53:49;12.00;99.90
27540;DHT22;15906;52.046;4.724;2022-09-16T05:56:17;12.10;99.90
27540;DHT22;15906;52.046;4.724;2022-09-16T05:58:43;12.00;99.90
27540;DHT22;15906;52.046;4.724;2022-09-16T06:01:17;12.00;99.90
27540;DHT22;15906;52.046;4.724;2022-09-16T06:03:45;12.00;99.90
27540;DHT22;15906;52.046;4.724;2022-09-16T06:06:32;12.00;99.90
27540;DHT22;15906;52.046;4.724;2022-09-16T06:09:19;12.10;99.90
27540;DHT22;15906;52.046;4.724;2022-09-16T06:11:47;12.10;99.90
27540;DHT22;15906;52.046;4.724;2022-09-16T06:14:14;12.20;99.90
27540;DHT22;15906;52.046;4.724;2022-09-16T06:16:40;12.30;99.90
27540;DHT22;15906;52.046;4.724;2022-09-16T06:19:08;12.50;99.90
27540;DHT22;15906;52.046;4.724;2022-09-16T06:21:35;12.60;99.90
27540;DHT22;15906;52.046;4.724;2022-09-16T06:24:02;12.50;99.90
27540;DHT22;15906;52.046;4.724;2022-09-16T06:26:27;12.40;99.90
27540;DHT22;15906;52.046;4.724;2022-09-16T06:28:54;12.40;99.90
27540;DHT22;15906;52.046;4.724;2022-09-16T06:31:22;12.40;99.90
27540;DHT22;15906;52.046;4.724;2022-09-16T06:33:48;12.20;99.90
27540;DHT22;15906;52.046;4.724;2022-09-16T06:36:19;12.20;99.90
27540;DHT22;15906;52.046;4.724;2022-09-16T06:38:46;12.30;99.90
27540;DHT22;15906;52.046;4.724;2022-09-16T06:41:12;12.30;99.90
27540;DHT22;15906;52.046;4.724;2022-09-16T06:43:38;12.30;99.90
27540;DHT22;15906;52.046;4.724;2022-09-16T06:46:07;12.30;99.90
27540;DHT22;15906;52.046;4.724;2022-09-16T06:48:38;12.30;99.90
27540;DHT22;15906;52.046;4.724;2022-09-16T06:51:08;12.40;99.90
27540;DHT22;15906;52.046;4.724;2022-09-16T06:53:34;12.30;99.90
27540;DHT22;15906;52.046;4.724;2022-09-16T06:56:01;12.40;99.90
27540;DHT22;15906;52.046;4.724;2022-09-16T06:58:27;12.40;99.90
27540;DHT22;15906;52.046;4.724;2022-09-16T07:00:55;12.50;99.90
27540;DHT22;15906;52.046;4.724;2022-09-16T07:03:21;12.60;99.90
27540;DHT22;15906;52.046;4.724;2022-09-16T07:05:57;12.60;99.90
27540;DHT22;15906;52.046;4.724;2022-09-16T07:08:24;12.80;99.90
27540;DHT22;15906;52.046;4.724;2022-09-16T07:11:20;12.90;99.90
27540;DHT22;15906;52.046;4.724;2022-09-16T07:13:46;13.30;99.90
27540;DHT22;15906;52.046;4.724;2022-09-16T07:16:23;13.50;99.90
27540;DHT22;15906;52.046;4.724;2022-09-16T07:18:53;13.70;99.90
27540;DHT22;15906;52.046;4.724;2022-09-16T07:21:21;13.80;99.90
27540;DHT22;15906;52.046;4.724;2022-09-16T07:23:49;14.00;99.90
27540;DHT22;15906;52.046;4.724;2022-09-16T07:26:20;14.00;99.90
27540;DHT22;15906;52.046;4.724;2022-09-16T07:28:47;14.00;99.90
27540;DHT22;15906;52.046;4.724;2022-09-16T07:31:18;14.10;99.90
27540;DHT22;15906;52.046;4.724;2022-09-16T07:33:48;14.30;99.90
27540;DHT22;15906;52.046;4.724;2022-09-16T07:36:16;14.50;99.90
27540;DHT22;15906;52.046;4.724;2022-09-16T07:38:42;14.70;99.90
27540;DHT22;15906;52.046;4.724;2022-09-16T07:41:13;14.70;99.90
27540;DHT22;15906;52.046;4.724;2022-09-16T07:43:41;14.70;99.90
27540;DHT22;15906;52.046;4.724;2022-09-16T07:46:08;14.70;99.90
27540;DHT22;15906;52.046;4.724;2022-09-16T07:48:37;14.70;99.90
27540;DHT22;15906;52.046;4.724;2022-09-16T07:51:14;14.60;99.90
27540;DHT22;15906;52.046;4.724;2022-09-16T07:53:40;14.60;99.90
27540;DHT22;15906;52.046;4.724;2022-09-16T07:56:17;14.60;99.90
27540;DHT22;15906;52.046;4.724;2022-09-16T07:58:45;14.60;99.90
27540;DHT22;15906;52.046;4.724;2022-09-16T08:01:12;14.40;99.90
27540;DHT22;15906;52.046;4.724;2022-09-16T08:03:39;14.30;99.90
27540;DHT22;15906;52.046;4.724;2022-09-16T08:06:08;14.20;99.90
27540;DHT22;15906;52.046;4.724;2022-09-16T08:08:35;13.90;99.90
27540;DHT22;15906;52.046;4.724;2022-09-16T08:11:01;13.80;99.90
27540;DHT22;15906;52.046;4.724;2022-09-16T08:13:29;13.90;99.90
27540;DHT22;15906;52.046;4.724;2022-09-16T08:15:59;13.70;99.90
27540;DHT22;15906;52.046;4.724;2022-09-16T08:18:25;13.80;99.90
27540;DHT22;15906;52.046;4.724;2022-09-16T08:20:50;13.90;99.90
27540;DHT22;15906;52.046;4.724;2022-09-16T08:23:16;13.90;99.90
27540;DHT22;15906;52.046;4.724;2022-09-16T08:25:41;14.00;99.90
27540;DHT22;15906;52.046;4.724;2022-09-16T08:28:14;13.80;99.90
27540;DHT22;15906;52.046;4.724;2022-09-16T08:30:41;13.80;99.90
27540;DHT22;15906;52.046;4.724;2022-09-16T08:33:07;13.60;99.90
27540;DHT22;15906;52.046;4.724;2022-09-16T08:35:32;13.50;99.90
27540;DHT22;15906;52.046;4.724;2022-09-16T08:37:58;13.50;99.90
27540;DHT22;15906;52.046;4.724;2022-09-16T08:40:24;13.50;99.90
27540;DHT22;15906;52.046;4.724;2022-09-16T08:43:16;13.50;99.90
27540;DHT22;15906;52.046;4.724;2022-09-16T08:45:54;13.50;99.90
27540;DHT22;15906;52.046;4.724;2022-09-16T08:48:42;13.60;99.90
27540;DHT22;15906;52.046;4.724;2022-09-16T08:51:15;13.50;99.90
27540;DHT22;15906;52.046;4.724;2022-09-16T08:53:53;13.60;99.90
27540;DHT22;15906;52.046;4.724;2022-09-16T08:56:22;13.70;99.90
27540;DHT22;15906;52.046;4.724;2022-09-16T08:58:54;13.90;99.90
27540;DHT22;15906;52.046;4.724;2022-09-16T09:01:44;14.20;99.90
27540;DHT22;15906;52.046;4.724;2022-09-16T09:04:12;14.70;99.90
27540;DHT22;15906;52.046;4.724;2022-09-16T09:06:58;15.00;99.90
27540;DHT22;15906;52.046;4.724;2022-09-16T09:09:47;15.00;99.90
27540;DHT22;15906;52.046;4.724;2022-09-16T09:12:44;14.50;99.90
27540;DHT22;15906;52.046;4.724;2022-09-16T09:20:55;14.20;99.90
27540;DHT22;15906;52.046;4.724;2022-09-16T09:23:45;14.10;99.90
27540;DHT22;15906;52.046;4.724;2022-09-16T09:26:57;14.10;99.90
27540;DHT22;15906;52.046;4.724;2022-09-16T09:43:47;14.70;99.90
27540;DHT22;15906;52.046;4.724;2022-09-16T09:46:24;14.90;99.90
27540;DHT22;15906;52.046;4.724;2022-09-16T09:48:57;14.70;99.90
27540;DHT22;15906;52.046;4.724;2022-09-16T09:51:29;14.60;99.90
27540;DHT22;15906;52.046;4.724;2022-09-16T09:54:12;14.60;99.90
27540;DHT22;15906;52.046;4.724;2022-09-16T09:56:43;14.60;99.90
27540;DHT22;15906;52.046;4.724;2022-09-16T10:01:43;14.70;99.90
27540;DHT22;15906;52.046;4.724;2022-09-16T10:04:15;14.90;99.90
27540;DHT22;15906;52.046;4.724;2022-09-16T10:06:41;15.00;99.90
27540;DHT22;15906;52.046;4.724;2022-09-16T10:09:11;15.10;99.90
27540;DHT22;15906;52.046;4.724;2022-09-16T10:11:54;15.20;99.90
27540;DHT22;15906;52.046;4.724;2022-09-16T10:16:49;14.80;99.90
27540;DHT22;15906;52.046;4.724;2022-09-16T10:19:19;14.60;99.90
27540;DHT22;15906;52.046;4.724;2022-09-16T10:21:49;14.40;99.90
27540;DHT22;15906;52.046;4.724;2022-09-16T10:24:28;14.30;99.90
27540;DHT22;15906;52.046;4.724;2022-09-16T10:26:54;14.10;99.90
27540;DHT22;15906;52.046;4.724;2022-09-16T10:29:20;14.10;99.90
27540;DHT22;15906;52.046;4.724;2022-09-16T10:31:46;14.10;99.90
27540;DHT22;15906;52.046;4.724;2022-09-16T10:34:37;14.30;99.90
27540;DHT22;15906;52.046;4.724;2022-09-16T10:37:24;14.30;99.90
27540;DHT22;15906;52.046;4.724;2022-09-16T10:39:54;14.30;99.90
27540;DHT22;15906;52.046;4.724;2022-09-16T10:42:22;14.30;99.90
27540;DHT22;15906;52.046;4.724;2022-09-16T10:44:50;14.70;99.90
27540;DHT22;15906;52.046;4.724;2022-09-16T10:47:22;15.20;99.90
27540;DHT22;15906;52.046;4.724;2022-09-16T10:49:51;15.80;99.90
27540;DHT22;15906;52.046;4.724;2022-09-16T10:52:23;16.20;99.90
27540;DHT22;15906;52.046;4.724;2022-09-16T10:54:49;16.70;99.90
27540;DHT22;15906;52.046;4.724;2022-09-16T11:00:24;16.80;99.90
27540;DHT22;15906;52.046;4.724;2022-09-16T11:03:19;16.30;99.90
27540;DHT22;15906;52.046;4.724;2022-09-16T11:14:32;14.40;99.90
27540;DHT22;15906;52.046;4.724;2022-09-16T11:28:40;15.10;99.90
27540;DHT22;15906;52.046;4.724;2022-09-16T11:31:29;15.10;99.90
27540;DHT22;15906;52.046;4.724;2022-09-16T11:34:37;15.10;99.90
27540;DHT22;15906;52.046;4.724;2022-09-16T11:37:16;14.80;99.90
27540;DHT22;15906;52.046;4.724;2022-09-16T11:39:59;15.10;99.90
27540;DHT22;15906;52.046;4.724;2022-09-16T11:42:34;15.50;99.90
27540;DHT22;15906;52.046;4.724;2022-09-16T11:47:44;15.40;99.90
27540;DHT22;15906;52.046;4.724;2022-09-16T11:53:16;15.30;99.90
27540;DHT22;15906;52.046;4.724;2022-09-16T11:55:55;15.00;99.90
27540;DHT22;15906;52.046;4.724;2022-09-16T12:01:05;14.50;99.90
27540;DHT22;15906;52.046;4.724;2022-09-16T12:03:54;14.30;99.90
27540;DHT22;15906;52.046;4.724;2022-09-16T12:06:24;14.20;99.90
27540;DHT22;15906;52.046;4.724;2022-09-16T12:09:12;14.40;99.90
27540;DHT22;15906;52.046;4.724;2022-09-16T12:11:43;14.60;99.90
27540;DHT22;15906;52.046;4.724;2022-09-16T12:14:22;15.00;99.90
27540;DHT22;15906;52.046;4.724;2022-09-16T12:16:56;15.20;99.90
27540;DHT22;15906;52.046;4.724;2022-09-16T12:19:28;15.40;99.90
27540;DHT22;15906;52.046;4.724;2022-09-16T12:22:08;15.50;99.90
27540;DHT22;15906;52.046;4.724;2022-09-16T12:24:43;15.30;99.90
27540;DHT22;15906;52.046;4.724;2022-09-16T12:32:58;15.70;99.90
27540;DHT22;15906;52.046;4.724;2022-09-16T12:35:31;15.60;99.90
27540;DHT22;15906;52.046;4.724;2022-09-16T12:37:57;15.60;99.90
27540;DHT22;15906;52.046;4.724;2022-09-16T12:51:07;15.40;99.90
27540;DHT22;15906;52.046;4.724;2022-09-16T12:56:45;15.00;99.90
27540;DHT22;15906;52.046;4.724;2022-09-16T12:59:32;14.80;99.90
27540;DHT22;15906;52.046;4.724;2022-09-16T13:02:16;14.80;99.90
27540;DHT22;15906;52.046;4.724;2022-09-16T13:04:46;14.80;99.90
27540;DHT22;15906;52.046;4.724;2022-09-16T13:07:35;14.80;99.90
27540;DHT22;15906;52.046;4.724;2022-09-16T13:10:17;14.80;99.90
27540;DHT22;15906;52.046;4.724;2022-09-16T13:12:50;14.80;99.90
27540;DHT22;15906;52.046;4.724;2022-09-16T13:15:42;14.70;99.90
27540;DHT22;15906;52.046;4.724;2022-09-16T13:21:04;14.50;99.90
27540;DHT22;15906;52.046;4.724;2022-09-16T13:23:33;14.50;99.90
27540;DHT22;15906;52.046;4.724;2022-09-16T13:26:06;14.20;99.90
27540;DHT22;15906;52.046;4.724;2022-09-16T13:33:45;14.40;99.90
27540;DHT22;15906;52.046;4.724;2022-09-16T13:36:32;14.40;99.90
27540;DHT22;15906;52.046;4.724;2022-09-16T13:39:00;14.50;99.90
27540;DHT22;15906;52.046;4.724;2022-09-16T13:41:44;14.40;99.90
27540;DHT22;15906;52.046;4.724;2022-09-16T13:44:39;14.50;99.90
27540;DHT22;15906;52.046;4.724;2022-09-16T13:49:38;14.50;99.90
27540;DHT22;15906;52.046;4.724;2022-09-16T13:52:20;14.50;99.90
27540;DHT22;15906;52.046;4.724;2022-09-16T13:54:50;14.40;99.90
27540;DHT22;15906;52.046;4.724;2022-09-16T14:00:21;14.40;99.90
27540;DHT22;15906;52.046;4.724;2022-09-16T14:05:34;14.70;99.90
27540;DHT22;15906;52.046;4.724;2022-09-16T14:08:14;14.60;99.90
27540;DHT22;15906;52.046;4.724;2022-09-16T14:11:13;14.80;99.90
27540;DHT22;15906;52.046;4.724;2022-09-16T14:13:49;14.90;99.90
27540;DHT22;15906;52.046;4.724;2022-09-16T14:16:22;15.00;99.90
27540;DHT22;15906;52.046;4.724;2022-09-16T14:21:59;15.10;99.90
27540;DHT22;15906;52.046;4.724;2022-09-16T14:24:33;15.10;99.90
27540;DHT22;15906;52.046;4.724;2022-09-16T14:26:59;15.10;99.90
27540;DHT22;15906;52.046;4.724;2022-09-16T14:29:25;15.10;99.90
27540;DHT22;15906;52.046;4.724;2022-09-16T14:31:54;15.00;99.90
27540;DHT22;15906;52.046;4.724;2022-09-16T14:34:33;14.90;99.90
27540;DHT22;15906;52.046;4.724;2022-09-16T14:37:01;14.90;99.90
27540;DHT22;15906;52.046;4.724;2022-09-16T14:39:27;15.10;99.90
27540;DHT22;15906;52.046;4.724;2022-09-16T14:41:59;14.70;99.90
27540;DHT22;15906;52.046;4.724;2022-09-16T14:44:39;14.60;99.90
27540;DHT22;15906;52.046;4.724;2022-09-16T14:47:31;14.50;99.90
27540;DHT22;15906;52.046;4.724;2022-09-16T14:50:06;14.30;99.90
27540;DHT22;15906;52.046;4.724;2022-09-16T14:52:34;14.20;99.90
27540;DHT22;15906;52.046;4.724;2022-09-16T14:55:00;14.20;99.90
27540;DHT22;15906;52.046;4.724;2022-09-16T14:57:27;14.30;99.90
27540;DHT22;15906;52.046;4.724;2022-09-16T15:00:00;14.30;99.90
27540;DHT22;15906;52.046;4.724;2022-09-16T15:02:30;14.30;99.90
27540;DHT22;15906;52.046;4.724;2022-09-16T15:07:43;14.20;99.90
27540;DHT22;15906;52.046;4.724;2022-09-16T15:10:22;14.10;99.90
27540;DHT22;15906;52.046;4.724;2022-09-16T15:12:52;13.90;99.90
27540;DHT22;15906;52.046;4.724;2022-09-16T15:15:22;13.90;99.90
27540;DHT22;15906;52.046;4.724;2022-09-16T15:20:41;14.20;99.90
27540;DHT22;15906;52.046;4.724;2022-09-16T15:23:18;14.20;99.90
27540;DHT22;15906;52.046;4.724;2022-09-16T15:25:52;14.20;99.90
27540;DHT22;15906;52.046;4.724;2022-09-16T15:28:19;14.30;99.90
27540;DHT22;15906;52.046;4.724;2022-09-16T15:30:53;14.40;99.90
27540;DHT22;15906;52.046;4.724;2022-09-16T15:33:34;14.40;99.90
27540;DHT22;15906;52.046;4.724;2022-09-16T15:36:01;14.50;99.90
27540;DHT22;15906;52.046;4.724;2022-09-16T15:38:28;14.40;99.90
27540;DHT22;15906;52.046;4.724;2022-09-16T15:41:04;14.40;99.90
27540;DHT22;15906;52.046;4.724;2022-09-16T15:43:36;14.40;99.90
27540;DHT22;15906;52.046;4.724;2022-09-16T15:46:11;14.50;99.90
27540;DHT22;15906;52.046;4.724;2022-09-16T15:48:44;14.30;99.90
27540;DHT22;15906;52.046;4.724;2022-09-16T15:51:30;14.30;99.90
27540;DHT22;15906;52.046;4.724;2022-09-16T15:54:13;14.40;99.90
27540;DHT22;15906;52.046;4.724;2022-09-16T16:00:26;14.40;99.90
27540;DHT22;15906;52.046;4.724;2022-09-16T16:05:14;14.30;99.90
27540;DHT22;15906;52.046;4.724;2022-09-16T16:07:51;14.30;99.90
27540;DHT22;15906;52.046;4.724;2022-09-16T16:10:32;14.30;99.90
27540;DHT22;15906;52.046;4.724;2022-09-16T16:13:01;14.30;99.90
27540;DHT22;15906;52.046;4.724;2022-09-16T16:15:31;14.30;99.90
27540;DHT22;15906;52.046;4.724;2022-09-16T16:18:01;14.10;99.90
27540;DHT22;15906;52.046;4.724;2022-09-16T16:20:27;13.90;99.90
27540;DHT22;15906;52.046;4.724;2022-09-16T16:22:53;13.80;99.90
27540;DHT22;15906;52.046;4.724;2022-09-16T16:25:19;13.80;99.90
27540;DHT22;15906;52.046;4.724;2022-09-16T16:27:45;13.70;99.90
27540;DHT22;15906;52.046;4.724;2022-09-16T16:30:11;13.70;99.90
27540;DHT22;15906;52.046;4.724;2022-09-16T16:32:36;13.60;99.90
27540;DHT22;15906;52.046;4.724;2022-09-16T16:35:04;13.50;99.90
27540;DHT22;15906;52.046;4.724;2022-09-16T16:37:30;13.50;99.90
27540;DHT22;15906;52.046;4.724;2022-09-16T16:39:55;13.50;99.90
27540;DHT22;15906;52.046;4.724;2022-09-16T16:42:21;13.50;99.90
27540;DHT22;15906;52.046;4.724;2022-09-16T16:44:48;13.50;99.90
27540;DHT22;15906;52.046;4.724;2022-09-16T16:47:13;13.50;99.90
27540;DHT22;15906;52.046;4.724;2022-09-16T16:49:39;13.50;99.90
27540;DHT22;15906;52.046;4.724;2022-09-16T16:52:05;13.40;99.90
27540;DHT22;15906;52.046;4.724;2022-09-16T16:54:32;13.50;99.90
27540;DHT22;15906;52.046;4.724;2022-09-16T16:56:58;13.50;99.90
27540;DHT22;15906;52.046;4.724;2022-09-16T16:59:24;13.50;99.90
27540;DHT22;15906;52.046;4.724;2022-09-16T17:01:52;13.40;99.90
27540;DHT22;15906;52.046;4.724;2022-09-16T17:04:18;13.40;99.90
27540;DHT22;15906;52.046;4.724;2022-09-16T17:06:43;13.40;99.90
27540;DHT22;15906;52.046;4.724;2022-09-16T17:09:09;13.40;99.90
27540;DHT22;15906;52.046;4.724;2022-09-16T17:11:36;13.30;99.90
27540;DHT22;15906;52.046;4.724;2022-09-16T17:14:05;13.30;99.90
27540;DHT22;15906;52.046;4.724;2022-09-16T17:16:32;13.30;99.90
27540;DHT22;15906;52.046;4.724;2022-09-16T17:19:00;13.30;99.90
27540;DHT22;15906;52.046;4.724;2022-09-16T17:21:28;13.30;99.90
27540;DHT22;15906;52.046;4.724;2022-09-16T17:23:54;13.40;99.90
27540;DHT22;15906;52.046;4.724;2022-09-16T17:26:21;13.30;99.90
27540;DHT22;15906;52.046;4.724;2022-09-16T17:28:48;13.20;99.90
27540;DHT22;15906;52.046;4.724;2022-09-16T17:31:17;13.20;99.90
27540;DHT22;15906;52.046;4.724;2022-09-16T17:33:45;13.10;99.90
27540;DHT22;15906;52.046;4.724;2022-09-16T17:36:13;13.00;99.90
27540;DHT22;15906;52.046;4.724;2022-09-16T17:38:38;13.10;99.90
27540;DHT22;15906;52.046;4.724;2022-09-16T17:41:09;13.10;99.90
27540;DHT22;15906;52.046;4.724;2022-09-16T17:43:36;13.20;99.90
27540;DHT22;15906;52.046;4.724;2022-09-16T17:46:03;13.20;99.90
27540;DHT22;15906;52.046;4.724;2022-09-16T17:48:30;13.20;99.90
27540;DHT22;15906;52.046;4.724;2022-09-16T17:50:56;13.10;99.90
27540;DHT22;15906;52.046;4.724;2022-09-16T17:53:22;13.20;99.90
27540;DHT22;15906;52.046;4.724;2022-09-16T17:55:48;13.20;99.90
27540;DHT22;15906;52.046;4.724;2022-09-16T17:58:14;13.00;99.90
27540;DHT22;15906;52.046;4.724;2022-09-16T18:00:40;12.90;99.90
27540;DHT22;15906;52.046;4.724;2022-09-16T18:03:06;12.90;99.90
27540;DHT22;15906;52.046;4.724;2022-09-16T18:05:33;12.90;99.90
27540;DHT22;15906;52.046;4.724;2022-09-16T18:07:59;12.90;99.90
27540;DHT22;15906;52.046;4.724;2022-09-16T18:10:24;12.90;99.90